createdAt,value
2023-04-20T00:01:21.442Z,97972.00
2023-04-20T00:03:49.221Z,97971.00
2023-04-20T00:06:17.020Z,97967.00
2023-04-20T00:08:44.894Z,97966.00
2023-04-20T00:11:12.531Z,97960.00
2023-04-20T00:13:40.237Z,97963.00
2023-04-20T00:16:08.308Z,97963.00
2023-04-20T00:18:37.356Z,97956.00
2023-04-20T00:21:05.240Z,97955.00
2023-04-20T00:23:32.880Z,97952.00
2023-04-20T00:26:00.708Z,97952.00
2023-04-20T00:28:28.340Z,97955.00
2023-04-20T00:30:56.121Z,97944.00
2023-04-20T00:33:23.862Z,97940.00
2023-04-20T00:35:52.958Z,97938.00
2023-04-20T00:38:20.733Z,97940.00
2023-04-20T00:40:53.078Z,97935.00
2023-04-20T00:43:21.968Z,97939.00
2023-04-20T00:45:52.023Z,97931.00
2023-04-20T00:48:20.086Z,97930.00
2023-04-20T00:50:48.229Z,97926.00
2023-04-20T00:53:18.781Z,97930.00
2023-04-20T00:55:46.643Z,97925.00
2023-04-20T00:58:14.440Z,97930.00
2023-04-20T01:00:42.137Z,97926.00
2023-04-20T01:03:10.417Z,97921.00
2023-04-20T01:05:38.359Z,97915.00
2023-04-20T01:08:06.565Z,97913.00
2023-04-20T01:10:36.227Z,97909.00
2023-04-20T01:13:04.290Z,97908.00
2023-04-20T01:15:31.981Z,97916.00
2023-04-20T01:17:59.734Z,97919.00
2023-04-20T01:20:27.896Z,97917.00
2023-04-20T01:22:56.908Z,97921.00
2023-04-20T01:25:24.618Z,97918.00
2023-04-20T01:27:52.290Z,97914.00
2023-04-20T01:30:20.215Z,97910.00
2023-04-20T01:32:47.978Z,97909.00
2023-04-20T01:35:15.869Z,97909.00
2023-04-20T01:37:43.820Z,97903.00
2023-04-20T01:40:14.393Z,97905.00
2023-04-20T01:42:42.391Z,97906.00
2023-04-20T01:45:10.834Z,97899.00
2023-04-20T01:47:38.616Z,97902.00
2023-04-20T01:50:07.105Z,97894.00
2023-04-20T01:52:34.810Z,97892.00
2023-04-20T01:55:02.472Z,97889.00
2023-04-20T01:57:31.484Z,97891.00
2023-04-20T01:59:59.122Z,97893.00
2023-04-20T02:02:26.976Z,97886.00
2023-04-20T02:04:55.084Z,97889.00
2023-04-20T02:07:22.747Z,97884.00
2023-04-20T02:09:50.387Z,97883.00
2023-04-20T02:12:18.034Z,97884.00
2023-04-20T02:14:47.063Z,97885.00
2023-04-20T02:17:15.015Z,97878.00
2023-04-20T02:19:42.812Z,97876.00
2023-04-20T02:22:10.620Z,97877.00
2023-04-20T02:24:38.289Z,97866.00
2023-04-20T02:27:06.596Z,97867.00
2023-04-20T02:29:34.246Z,97862.00
2023-04-20T02:32:03.426Z,97865.00
2023-04-20T02:34:31.314Z,97862.00
2023-04-20T02:36:58.945Z,97857.00
2023-04-20T02:39:26.594Z,97861.00
2023-04-20T02:41:54.242Z,97862.00
2023-04-20T02:44:21.860Z,97856.00
2023-04-20T02:46:49.614Z,97854.00
2023-04-20T02:49:18.976Z,97850.00
2023-04-20T02:51:46.933Z,97852.00
2023-04-20T02:54:14.655Z,97846.00
2023-04-20T02:56:42.296Z,97846.00
2023-04-20T02:59:10.274Z,97845.00
2023-04-20T03:01:37.942Z,97844.00
2023-04-20T03:04:06.599Z,97849.00
2023-04-20T03:06:38.128Z,97841.00
2023-04-20T03:09:07.545Z,97852.00
2023-04-20T03:11:35.375Z,97848.00
2023-04-20T03:14:03.011Z,97845.00
2023-04-20T03:16:30.927Z,97848.00
2023-04-20T03:18:59.412Z,97844.00
2023-04-20T03:21:27.060Z,97847.00
2023-04-20T03:23:56.048Z,97841.00
2023-04-20T03:26:24.282Z,97845.00
2023-04-20T03:28:52.240Z,97842.00
2023-04-20T03:31:19.944Z,97844.00
2023-04-20T03:33:47.591Z,97839.00
2023-04-20T03:36:15.203Z,97844.00
2023-04-20T03:38:42.844Z,97843.00
2023-04-20T03:41:11.839Z,97833.00
2023-04-20T03:43:39.607Z,97841.00
2023-04-20T03:46:07.259Z,97845.00
2023-04-20T03:48:35.429Z,97838.00
2023-04-20T03:51:03.109Z,97841.00
2023-04-20T03:53:30.810Z,97841.00
2023-04-20T03:55:58.472Z,97834.00
2023-04-20T03:58:28.034Z,97841.00
2023-04-20T04:01:03.085Z,97827.00
2023-04-20T04:03:31.215Z,97830.00
2023-04-20T04:05:58.979Z,97833.00
2023-04-20T04:08:26.781Z,97836.00
2023-04-20T04:10:54.422Z,97838.00
2023-04-20T04:13:22.152Z,97828.00
2023-04-20T04:15:51.134Z,97833.00
2023-04-20T04:18:18.784Z,97834.00
2023-04-20T04:20:46.530Z,97832.00
2023-04-20T04:23:14.177Z,97837.00
2023-04-20T04:25:41.796Z,97838.00
2023-04-20T04:28:09.502Z,97836.00
2023-04-20T04:30:37.190Z,97841.00
2023-04-20T04:33:06.209Z,97842.00
2023-04-20T04:35:34.618Z,97836.00
2023-04-20T04:38:02.328Z,97838.00
2023-04-20T04:40:30.024Z,97837.00
2023-04-20T04:42:58.471Z,97832.00
2023-04-20T04:45:26.141Z,97830.00
2023-04-20T04:47:54.244Z,97832.00
2023-04-20T04:50:23.548Z,97832.00
2023-04-20T04:52:51.193Z,97824.00
2023-04-20T04:55:19.034Z,97834.00
2023-04-20T04:57:46.644Z,97830.00
2023-04-20T05:00:15.925Z,97814.00
2023-04-20T05:02:43.797Z,97820.00
2023-04-20T05:05:11.643Z,97817.00
2023-04-20T05:07:40.791Z,97822.00
2023-04-20T05:10:09.583Z,97819.00
2023-04-20T05:12:37.400Z,97825.00
2023-04-20T05:15:05.723Z,97828.00
2023-04-20T05:17:33.414Z,97825.00
2023-04-20T05:20:01.292Z,97828.00
2023-04-20T05:22:28.928Z,97831.00
2023-04-20T05:24:57.925Z,97821.00
2023-04-20T05:27:25.579Z,97824.00
2023-04-20T05:29:53.271Z,97818.00
2023-04-20T05:32:20.969Z,97830.00
2023-04-20T05:34:48.853Z,97831.00
2023-04-20T05:37:16.698Z,97824.00
2023-04-20T05:39:44.360Z,97822.00
2023-04-20T05:42:13.661Z,97820.00
2023-04-20T05:44:41.416Z,97830.00
2023-04-20T05:47:09.075Z,97829.00
2023-04-20T05:49:36.848Z,97827.00
2023-04-20T05:52:04.613Z,97828.00
2023-04-20T05:54:32.371Z,97831.00
2023-04-20T05:57:00.064Z,97830.00
2023-04-20T05:59:29.159Z,97825.00
2023-04-20T06:01:56.929Z,97834.00
2023-04-20T06:04:24.759Z,97836.00
2023-04-20T06:06:52.665Z,97832.00
2023-04-20T06:09:20.443Z,97838.00
2023-04-20T06:11:48.086Z,97835.00
2023-04-20T06:14:16.014Z,97833.00
2023-04-20T06:16:45.075Z,97840.00
2023-04-20T06:19:12.737Z,97836.00
2023-04-20T06:21:40.590Z,97834.00
2023-04-20T06:24:09.183Z,97840.00
2023-04-20T06:26:36.855Z,97847.00
2023-04-20T06:29:04.517Z,97842.00
2023-04-20T06:31:32.671Z,97845.00
2023-04-20T06:34:01.713Z,97845.00
2023-04-20T06:36:29.852Z,97846.00
2023-04-20T06:38:57.528Z,97840.00
2023-04-20T06:41:25.286Z,97836.00
2023-04-20T06:43:52.909Z,97839.00
2023-04-20T06:46:20.667Z,97830.00
2023-04-20T06:48:48.353Z,97840.00
2023-04-20T06:51:17.342Z,97843.00
2023-04-20T06:53:44.995Z,97837.00
2023-04-20T06:56:12.756Z,97834.00
2023-04-20T06:58:40.394Z,97841.00
2023-04-20T07:01:08.102Z,97833.00
2023-04-20T07:03:36.393Z,97841.00
2023-04-20T07:06:04.448Z,97835.00
2023-04-20T07:08:33.520Z,97835.00
2023-04-20T07:11:01.303Z,97830.00
2023-04-20T07:13:33.985Z,97824.00
2023-04-20T07:16:01.949Z,97831.00
2023-04-20T07:18:29.617Z,97828.00
2023-04-20T07:20:57.267Z,97837.00
2023-04-20T07:23:24.979Z,97831.00
2023-04-20T07:25:54.637Z,97829.00
2023-04-20T07:28:22.279Z,97828.00
2023-04-20T07:30:49.940Z,97835.00
2023-04-20T07:33:17.669Z,97838.00
2023-04-20T07:35:45.372Z,97826.00
2023-04-20T07:38:13.129Z,97830.00
2023-04-20T07:40:41.115Z,97832.00
2023-04-20T07:43:10.191Z,97826.00
2023-04-20T07:45:41.080Z,97826.00
2023-04-20T07:48:09.558Z,97836.00
2023-04-20T07:50:37.481Z,97838.00
2023-04-20T07:53:05.270Z,97837.00
2023-04-20T07:55:33.040Z,97842.00
2023-04-20T07:58:01.600Z,97838.00
2023-04-20T08:00:31.034Z,97836.00
2023-04-20T08:02:59.443Z,97832.00
2023-04-20T08:05:27.532Z,97829.00
2023-04-20T08:07:55.348Z,97821.00
2023-04-20T08:10:23.111Z,97822.00
2023-04-20T08:12:52.740Z,97817.00
2023-04-20T08:15:20.665Z,97817.00
2023-04-20T08:17:49.871Z,97822.00
2023-04-20T08:20:17.822Z,97812.00
2023-04-20T08:22:45.497Z,97809.00
2023-04-20T08:25:13.438Z,97802.00
2023-04-20T08:27:41.106Z,97806.00
2023-04-20T08:30:09.596Z,97811.00
2023-04-20T08:32:37.730Z,97812.00
2023-04-20T08:35:07.483Z,97794.00
2023-04-20T08:37:35.452Z,97805.00
2023-04-20T08:40:03.633Z,97808.00
2023-04-20T08:42:32.115Z,97807.00
2023-04-20T08:45:00.308Z,97802.00
2023-04-20T08:47:29.228Z,97804.00
2023-04-20T08:49:57.709Z,97808.00
2023-04-20T08:52:26.729Z,97803.00
2023-04-20T08:54:57.277Z,97796.00
2023-04-20T08:57:25.741Z,97801.00
2023-04-20T08:59:53.485Z,97801.00
2023-04-20T09:02:23.599Z,97800.00
2023-04-20T09:05:02.157Z,97803.00
2023-04-20T09:07:31.632Z,97800.00
2023-04-20T09:10:00.481Z,97813.00
2023-04-20T09:12:29.531Z,97808.00
2023-04-20T09:14:57.355Z,97806.00
2023-04-20T09:17:42.959Z,97803.00
2023-04-20T09:20:11.785Z,97800.00
2023-04-20T09:22:42.108Z,97803.00
2023-04-20T09:25:16.399Z,97803.00
2023-04-20T09:27:44.255Z,97801.00
2023-04-20T09:30:12.629Z,97802.00
2023-04-20T09:32:40.389Z,97796.00
2023-04-20T09:35:08.850Z,97788.00
2023-04-20T09:37:36.552Z,97785.00
2023-04-20T09:40:07.517Z,97780.00
2023-04-20T09:42:39.729Z,97783.00
2023-04-20T09:45:08.887Z,97780.00
2023-04-20T09:47:41.752Z,97777.00
2023-04-20T09:50:24.757Z,97773.00
2023-04-20T09:52:55.422Z,97767.00
2023-04-20T09:55:26.228Z,97771.00
2023-04-20T09:57:55.130Z,97766.00
2023-04-20T10:00:23.790Z,97771.00
2023-04-20T10:02:51.869Z,97761.00
2023-04-20T10:05:19.699Z,97768.00
2023-04-20T10:07:47.402Z,97755.00
2023-04-20T10:10:16.928Z,97760.00
2023-04-20T10:12:53.460Z,97768.00
2023-04-20T10:15:22.083Z,97753.00
2023-04-20T10:17:50.127Z,97749.00
2023-04-20T10:20:22.742Z,97757.00
2023-04-20T10:22:52.536Z,97754.00
2023-04-20T10:25:22.192Z,97745.00
2023-04-20T10:27:59.368Z,97745.00
2023-04-20T10:30:28.262Z,97737.00
2023-04-20T10:33:06.550Z,97741.00
2023-04-20T10:35:46.022Z,97730.00
2023-04-20T10:38:14.036Z,97738.00
2023-04-20T10:40:41.698Z,97726.00
2023-04-20T10:43:21.691Z,97725.00
2023-04-20T10:45:50.199Z,97729.00
2023-04-20T10:48:18.480Z,97722.00
2023-04-20T10:50:46.496Z,97713.00
2023-04-20T10:53:21.640Z,97714.00
2023-04-20T10:55:58.728Z,97711.00
2023-04-20T10:58:27.838Z,97706.00
2023-04-20T11:00:59.662Z,97701.00
2023-04-20T11:03:30.209Z,97696.00
2023-04-20T11:06:01.345Z,97692.00
2023-04-20T11:08:39.833Z,97686.00
2023-04-20T11:11:18.288Z,97685.00
2023-04-20T11:13:47.341Z,97676.00
2023-04-20T11:16:16.449Z,97684.00
2023-04-20T11:18:55.493Z,97678.00
2023-04-20T11:21:23.659Z,97669.00
2023-04-20T11:23:51.564Z,97662.00
2023-04-20T11:26:19.217Z,97649.00
2023-04-20T11:28:56.619Z,97650.00
2023-04-20T11:31:25.502Z,97654.00
2023-04-20T11:33:53.293Z,97649.00
2023-04-20T11:36:22.237Z,97648.00
2023-04-20T11:38:50.566Z,97656.00
2023-04-20T11:41:18.681Z,97658.00
2023-04-20T11:43:46.707Z,97661.00
2023-04-20T11:46:18.046Z,97652.00
2023-04-20T11:48:46.179Z,97655.00
2023-04-20T11:51:14.273Z,97661.00
2023-04-20T11:53:42.670Z,97655.00
2023-04-20T11:56:10.637Z,97662.00
2023-04-20T11:58:38.658Z,97652.00
2023-04-20T12:01:06.840Z,97662.00
2023-04-20T12:03:37.050Z,97664.00
2023-04-20T12:06:05.196Z,97654.00
2023-04-20T12:08:32.995Z,97657.00
2023-04-20T12:11:00.686Z,97661.00
2023-04-20T12:13:28.354Z,97648.00
2023-04-20T12:15:56.050Z,97657.00
2023-04-20T12:18:23.754Z,97660.00
2023-04-20T12:20:52.813Z,97656.00
2023-04-20T12:23:20.515Z,97662.00
2023-04-20T12:25:49.350Z,97663.00
2023-04-20T12:28:17.063Z,97653.00
2023-04-20T12:30:44.738Z,97651.00
2023-04-20T12:33:12.627Z,97655.00
2023-04-20T12:35:40.418Z,97659.00
2023-04-20T12:38:09.419Z,97655.00
2023-04-20T12:40:38.258Z,97660.00
2023-04-20T12:43:05.970Z,97652.00
2023-04-20T12:45:33.952Z,97649.00
2023-04-20T12:48:01.834Z,97644.00
2023-04-20T12:50:29.670Z,97640.00
2023-04-20T12:52:58.506Z,97635.00
2023-04-20T12:55:27.744Z,97646.00
2023-04-20T12:57:55.396Z,97652.00
2023-04-20T13:00:23.242Z,97648.00
2023-04-20T13:02:51.076Z,97645.00
2023-04-20T13:05:19.744Z,97648.00
2023-04-20T13:07:47.409Z,97650.00
2023-04-20T13:10:15.278Z,97648.00
2023-04-20T13:12:44.310Z,97652.00
2023-04-20T13:15:13.123Z,97644.00
2023-04-20T13:17:41.444Z,97630.00
2023-04-20T13:20:10.097Z,97638.00
2023-04-20T13:22:47.063Z,97639.00
2023-04-20T13:25:24.956Z,97643.00
2023-04-20T13:27:54.587Z,97646.00
2023-04-20T13:30:24.054Z,97639.00
2023-04-20T13:32:52.092Z,97643.00
2023-04-20T13:35:20.007Z,97650.00
2023-04-20T13:37:47.662Z,97646.00
2023-04-20T13:40:15.462Z,97647.00
2023-04-20T13:42:43.473Z,97637.00
2023-04-20T13:45:13.404Z,97637.00
2023-04-20T13:47:41.231Z,97642.00
2023-04-20T13:50:10.141Z,97639.00
2023-04-20T13:52:38.305Z,97635.00
2023-04-20T13:55:06.392Z,97631.00
2023-04-20T13:57:34.058Z,97635.00
2023-04-20T14:00:02.604Z,97640.00
2023-04-20T14:02:31.708Z,97633.00
2023-04-20T14:04:59.475Z,97632.00
2023-04-20T14:07:27.217Z,97630.00
2023-04-20T14:09:56.575Z,97631.00
2023-04-20T14:12:24.401Z,97631.00
2023-04-20T14:14:52.280Z,97636.00
2023-04-20T14:17:20.077Z,97647.00
2023-04-20T14:19:49.567Z,97651.00
2023-04-20T14:22:17.225Z,97643.00
2023-04-20T14:24:45.655Z,97636.00
2023-04-20T14:27:13.344Z,97620.00
2023-04-20T14:29:41.167Z,97623.00
2023-04-20T14:32:09.095Z,97620.00
2023-04-20T14:34:36.765Z,97620.00
2023-04-20T14:37:06.064Z,97627.00
2023-04-20T14:39:34.671Z,97616.00
2023-04-20T14:42:02.363Z,97615.00
2023-04-20T14:44:30.047Z,97603.00
2023-04-20T14:46:58.029Z,97612.00
2023-04-20T14:49:25.758Z,97605.00
2023-04-20T14:51:53.468Z,97603.00
2023-04-20T14:54:22.771Z,97605.00
2023-04-20T14:56:50.485Z,97605.00
2023-04-20T14:59:18.139Z,97596.00
2023-04-20T15:01:58.788Z,97596.00
2023-04-20T15:04:29.956Z,97587.00
2023-04-20T15:06:57.813Z,97595.00
2023-04-20T15:09:26.931Z,97584.00
2023-04-20T15:11:54.564Z,97579.00
2023-04-20T15:14:22.247Z,97579.00
2023-04-20T15:16:51.916Z,97582.00
2023-04-20T15:19:21.248Z,97579.00
2023-04-20T15:21:48.901Z,97581.00
2023-04-20T15:24:16.706Z,97583.00
2023-04-20T15:26:46.019Z,97591.00
2023-04-20T15:29:13.681Z,97577.00
2023-04-20T15:31:43.380Z,97578.00
2023-04-20T15:34:15.011Z,97570.00
2023-04-20T15:36:43.637Z,97567.00
2023-04-20T15:39:11.452Z,97553.00
2023-04-20T15:41:39.148Z,97555.00
2023-04-20T15:44:08.243Z,97545.00
2023-04-20T15:46:37.078Z,97545.00
2023-04-20T15:49:04.868Z,97546.00
2023-04-20T15:51:32.614Z,97547.00
2023-04-20T15:54:00.329Z,97538.00
2023-04-20T15:56:27.996Z,97542.00
2023-04-20T15:58:55.662Z,97536.00
2023-04-20T16:01:24.694Z,97533.00
2023-04-20T16:03:52.477Z,97542.00
2023-04-20T16:06:20.367Z,97551.00
2023-04-20T16:08:49.538Z,97546.00
2023-04-20T16:11:17.274Z,97548.00
2023-04-20T16:13:45.029Z,97549.00
2023-04-20T16:16:12.766Z,97555.00
2023-04-20T16:18:41.869Z,97558.00
2023-04-20T16:21:10.077Z,97552.00
2023-04-20T16:23:37.736Z,97542.00
2023-04-20T16:26:05.470Z,97548.00
2023-04-20T16:28:33.192Z,97552.00
2023-04-20T16:31:01.004Z,97546.00
2023-04-20T16:33:30.384Z,97548.00
2023-04-20T16:36:00.461Z,97546.00
2023-04-20T16:38:28.240Z,97545.00
2023-04-20T16:40:55.956Z,97558.00
2023-04-20T16:43:23.809Z,97547.00
2023-04-20T16:45:51.506Z,97550.00
2023-04-20T16:48:19.183Z,97553.00
2023-04-20T16:50:46.845Z,97548.00
2023-04-20T16:53:15.988Z,97548.00
2023-04-20T16:55:43.860Z,97546.00
2023-04-20T16:58:11.669Z,97542.00
2023-04-20T17:00:39.366Z,97542.00
2023-04-20T17:03:10.466Z,97544.00
2023-04-20T17:05:41.630Z,97554.00
2023-04-20T17:08:09.850Z,97553.00
2023-04-20T17:10:39.425Z,97553.00
2023-04-20T17:13:07.115Z,97559.00
2023-04-20T17:15:34.801Z,97556.00
2023-04-20T17:18:02.541Z,97557.00
2023-04-20T17:20:30.226Z,97562.00
2023-04-20T17:22:57.891Z,97555.00
2023-04-20T17:25:25.675Z,97547.00
2023-04-20T17:27:54.715Z,97552.00
2023-04-20T17:30:22.431Z,97549.00
2023-04-20T17:32:50.135Z,97553.00
2023-04-20T17:35:17.851Z,97563.00
2023-04-20T17:37:45.843Z,97557.00
2023-04-20T17:40:13.800Z,97558.00
2023-04-20T17:42:41.451Z,97560.00
2023-04-20T17:45:11.681Z,97562.00
2023-04-20T17:47:39.444Z,97565.00
2023-04-20T17:50:08.593Z,97562.00
2023-04-20T17:52:36.285Z,97568.00
2023-04-20T17:55:04.200Z,97569.00
2023-04-20T17:57:31.865Z,97566.00
2023-04-20T17:59:59.565Z,97565.00
2023-04-20T18:02:28.724Z,97575.00
2023-04-20T18:04:59.658Z,97568.00
2023-04-20T18:07:27.570Z,97563.00
2023-04-20T18:09:55.322Z,97557.00
2023-04-20T18:12:23.134Z,97556.00
2023-04-20T18:14:50.827Z,97553.00
2023-04-20T18:17:18.705Z,97556.00
2023-04-20T18:19:47.788Z,97560.00
2023-04-20T18:22:16.513Z,97565.00
2023-04-20T18:24:44.286Z,97575.00
2023-04-20T18:27:12.327Z,97579.00
2023-04-20T18:29:40.096Z,97578.00
2023-04-20T18:32:07.951Z,97576.00
2023-04-20T18:34:36.775Z,97580.00
2023-04-20T18:37:05.905Z,97587.00
2023-04-20T18:39:33.627Z,97588.00
2023-04-20T18:42:02.289Z,97592.00
2023-04-20T18:44:30.305Z,97592.00
2023-04-20T18:46:58.140Z,97602.00
2023-04-20T18:49:26.067Z,97611.00
2023-04-20T18:51:53.928Z,97607.00
2023-04-20T18:54:23.144Z,97605.00
2023-04-20T18:56:50.967Z,97614.00
2023-04-20T18:59:18.740Z,97620.00
2023-04-20T19:01:46.408Z,97623.00
2023-04-20T19:04:14.140Z,97623.00
2023-04-20T19:06:41.820Z,97622.00
2023-04-20T19:09:09.482Z,97621.00
2023-04-20T19:11:38.490Z,97622.00
2023-04-20T19:14:06.276Z,97626.00
2023-04-20T19:16:35.203Z,97631.00
2023-04-20T19:19:03.825Z,97625.00
2023-04-20T19:21:32.000Z,97630.00
2023-04-20T19:23:59.699Z,97632.00
2023-04-20T19:26:27.401Z,97627.00
2023-04-20T19:28:58.162Z,97624.00
2023-04-20T19:31:26.393Z,97626.00
2023-04-20T19:33:56.498Z,97629.00
2023-04-20T19:36:24.889Z,97627.00
2023-04-20T19:38:52.636Z,97624.00
2023-04-20T19:41:20.311Z,97627.00
2023-04-20T19:43:47.975Z,97624.00
2023-04-20T19:46:17.197Z,97621.00
2023-04-20T19:48:45.430Z,97626.00
2023-04-20T19:51:13.100Z,97619.00
2023-04-20T19:53:41.187Z,97615.00
2023-04-20T19:56:08.974Z,97610.00
2023-04-20T19:58:36.760Z,97611.00
2023-04-20T20:01:05.053Z,97604.00
2023-04-20T20:03:34.806Z,97597.00
2023-04-20T20:06:07.911Z,97599.00
2023-04-20T20:08:36.275Z,97605.00
2023-04-20T20:11:04.215Z,97598.00
2023-04-20T20:13:32.134Z,97596.00
2023-04-20T20:16:00.361Z,97602.00
2023-04-20T20:18:28.220Z,97605.00
2023-04-20T20:20:57.217Z,97602.00
2023-04-20T20:23:25.084Z,97603.00
2023-04-20T20:25:53.239Z,97591.00
2023-04-20T20:28:22.361Z,97587.00
2023-04-20T20:30:50.516Z,97589.00
2023-04-20T20:33:18.245Z,97582.00
2023-04-20T20:35:46.404Z,97588.00
2023-04-20T20:38:17.848Z,97598.00
2023-04-20T20:40:45.966Z,97600.00
2023-04-20T20:43:14.257Z,97600.00
2023-04-20T20:45:42.474Z,97600.00
2023-04-20T20:48:10.354Z,97607.00
2023-04-20T20:50:38.501Z,97603.00
2023-04-20T20:53:06.174Z,97610.00
2023-04-20T20:55:35.231Z,97619.00
2023-04-20T20:58:02.946Z,97620.00
2023-04-20T21:00:30.805Z,97616.00
2023-04-20T21:02:59.012Z,97613.00
2023-04-20T21:05:26.877Z,97618.00
2023-04-20T21:07:54.682Z,97613.00
2023-04-20T21:10:24.748Z,97619.00
2023-04-20T21:12:53.769Z,97620.00
2023-04-20T21:15:21.423Z,97629.00
2023-04-20T21:17:49.241Z,97631.00
2023-04-20T21:20:17.085Z,97631.00
2023-04-20T21:22:44.823Z,97637.00
2023-04-20T21:25:12.492Z,97647.00
2023-04-20T21:27:40.206Z,97654.00
2023-04-20T21:30:10.727Z,97648.00
2023-04-20T21:32:38.415Z,97643.00
2023-04-20T21:35:11.251Z,97645.00
2023-04-20T21:37:39.825Z,97643.00
2023-04-20T21:40:09.485Z,97655.00
2023-04-20T21:42:37.191Z,97648.00
2023-04-20T21:45:05.508Z,97654.00
2023-04-20T21:47:34.529Z,97646.00
2023-04-20T21:50:02.246Z,97647.00
2023-04-20T21:52:29.924Z,97649.00
2023-04-20T21:54:57.608Z,97650.00
2023-04-20T21:57:25.281Z,97645.00
2023-04-20T21:59:52.979Z,97641.00
2023-04-20T22:02:20.842Z,97646.00
2023-04-20T22:04:50.047Z,97642.00
2023-04-20T22:07:18.915Z,97655.00
2023-04-20T22:09:46.548Z,97652.00
2023-04-20T22:12:14.167Z,97648.00
2023-04-20T22:14:41.797Z,97645.00
2023-04-20T22:17:09.623Z,97640.00
2023-04-20T22:19:37.296Z,97640.00
2023-04-20T22:22:06.332Z,97640.00
2023-04-20T22:24:34.421Z,97638.00
2023-04-20T22:27:02.379Z,97640.00
2023-04-20T22:29:30.084Z,97638.00
2023-04-20T22:31:57.912Z,97638.00
2023-04-20T22:34:25.616Z,97635.00
2023-04-20T22:36:53.290Z,97634.00
2023-04-20T22:39:22.297Z,97633.00
2023-04-20T22:41:49.948Z,97625.00
2023-04-20T22:44:17.591Z,97622.00
2023-04-20T22:46:45.339Z,97632.00
2023-04-20T22:49:13.196Z,97625.00
2023-04-20T22:51:41.543Z,97623.00
2023-04-20T22:54:09.195Z,97633.00
2023-04-20T22:56:38.333Z,97622.00
2023-04-20T22:59:06.050Z,97624.00
2023-04-20T23:01:33.721Z,97630.00
2023-04-20T23:04:01.595Z,97633.00
2023-04-20T23:06:29.632Z,97637.00
2023-04-20T23:08:59.181Z,97642.00
2023-04-20T23:11:29.034Z,97640.00
2023-04-20T23:13:58.050Z,97633.00
2023-04-20T23:16:28.102Z,97633.00
2023-04-20T23:18:55.860Z,97646.00
2023-04-20T23:21:23.500Z,97640.00
2023-04-20T23:23:52.813Z,97641.00
2023-04-20T23:26:20.956Z,97644.00
2023-04-20T23:28:48.615Z,97635.00
2023-04-20T23:31:17.625Z,97641.00
2023-04-20T23:33:45.484Z,97638.00
2023-04-20T23:36:13.304Z,97643.00
2023-04-20T23:38:41.014Z,97645.00
2023-04-20T23:41:12.378Z,97646.00
2023-04-20T23:43:40.590Z,97645.00
2023-04-20T23:46:08.808Z,97639.00
2023-04-20T23:48:37.790Z,97632.00
2023-04-20T23:51:05.845Z,97636.00
2023-04-20T23:53:36.250Z,97629.00
2023-04-20T23:56:04.461Z,97628.00
2023-04-20T23:58:33.246Z,97625.00
